sensor_id;sensor_type;location;lat;lon;timestamp;P1;durP1;ratioP1;P2;durP2;ratioP2
15669;SDS011;18524;45.190;5.732;2022-12-07T00:01:06;24.20;;;15.00;;
15669;SDS011;18524;45.190;5.732;2022-12-07T00:06:01;24.57;;;15.03;;
15669;SDS011;18524;45.190;5.732;2022-12-07T00:10:52;25.13;;;14.60;;
15669;SDS011;18524;45.190;5.732;2022-12-07T00:15:43;25.20;;;15.17;;
15669;SDS011;18524;45.190;5.732;2022-12-07T00:20:33;25.60;;;15.70;;
15669;SDS011;18524;45.190;5.732;2022-12-07T00:25:24;25.73;;;14.87;;
15669;SDS011;18524;45.190;5.732;2022-12-07T00:30:14;26.57;;;16.00;;
15669;SDS011;18524;45.190;5.732;2022-12-07T00:35:05;24.83;;;15.07;;
15669;SDS011;18524;45.190;5.732;2022-12-07T00:39:56;27.13;;;15.47;;
15669;SDS011;18524;45.190;5.732;2022-12-07T00:44:46;26.00;;;14.97;;
15669;SDS011;18524;45.190;5.732;2022-12-07T00:49:36;24.00;;;15.33;;
15669;SDS011;18524;45.190;5.732;2022-12-07T00:54:27;24.07;;;15.00;;
15669;SDS011;18524;45.190;5.732;2022-12-07T00:59:17;25.30;;;15.47;;
15669;SDS011;18524;45.190;5.732;2022-12-07T01:04:08;25.57;;;16.03;;
15669;SDS011;18524;45.190;5.732;2022-12-07T01:08:58;24.83;;;14.90;;
15669;SDS011;18524;45.190;5.732;2022-12-07T01:13:50;24.10;;;15.43;;
15669;SDS011;18524;45.190;5.732;2022-12-07T01:18:42;24.93;;;14.93;;
15669;SDS011;18524;45.190;5.732;2022-12-07T01:23:35;24.67;;;15.17;;
15669;SDS011;18524;45.190;5.732;2022-12-07T01:28:26;25.50;;;15.90;;
15669;SDS011;18524;45.190;5.732;2022-12-07T01:33:17;25.73;;;14.63;;
15669;SDS011;18524;45.190;5.732;2022-12-07T01:38:07;24.87;;;15.80;;
15669;SDS011;18524;45.190;5.732;2022-12-07T01:42:57;25.03;;;15.20;;
15669;SDS011;18524;45.190;5.732;2022-12-07T01:47:50;23.33;;;14.40;;
15669;SDS011;18524;45.190;5.732;2022-12-07T01:52:44;22.93;;;13.97;;
15669;SDS011;18524;45.190;5.732;2022-12-07T01:57:40;25.13;;;14.70;;
15669;SDS011;18524;45.190;5.732;2022-12-07T02:02:34;23.03;;;13.73;;
15669;SDS011;18524;45.190;5.732;2022-12-07T02:07:28;21.90;;;13.37;;
15669;SDS011;18524;45.190;5.732;2022-12-07T02:12:19;22.63;;;14.10;;
15669;SDS011;18524;45.190;5.732;2022-12-07T02:17:18;23.57;;;13.80;;
15669;SDS011;18524;45.190;5.732;2022-12-07T02:22:22;21.87;;;13.77;;
15669;SDS011;18524;45.190;5.732;2022-12-07T02:27:34;24.80;;;14.27;;
15669;SDS011;18524;45.190;5.732;2022-12-07T02:42:28;24.53;;;14.67;;
15669;SDS011;18524;45.190;5.732;2022-12-07T02:47:26;22.30;;;13.70;;
15669;SDS011;18524;45.190;5.732;2022-12-07T02:52:19;22.33;;;14.10;;
15669;SDS011;18524;45.190;5.732;2022-12-07T03:02:53;26.23;;;14.63;;
15669;SDS011;18524;45.190;5.732;2022-12-07T03:18:06;24.70;;;14.50;;
15669;SDS011;18524;45.190;5.732;2022-12-07T03:23:00;23.63;;;14.57;;
15669;SDS011;18524;45.190;5.732;2022-12-07T03:27:57;24.33;;;14.83;;
15669;SDS011;18524;45.190;5.732;2022-12-07T03:33:02;25.03;;;15.33;;
15669;SDS011;18524;45.190;5.732;2022-12-07T03:38:32;23.30;;;15.47;;
15669;SDS011;18524;45.190;5.732;2022-12-07T03:43:19;24.20;;;14.63;;
15669;SDS011;18524;45.190;5.732;2022-12-07T03:53:21;24.60;;;14.83;;
15669;SDS011;18524;45.190;5.732;2022-12-07T03:58:23;23.17;;;15.00;;
15669;SDS011;18524;45.190;5.732;2022-12-07T04:03:14;23.10;;;14.63;;
15669;SDS011;18524;45.190;5.732;2022-12-07T04:08:05;24.20;;;15.37;;
15669;SDS011;18524;45.190;5.732;2022-12-07T04:12:55;24.23;;;15.07;;
15669;SDS011;18524;45.190;5.732;2022-12-07T04:17:46;23.83;;;15.43;;
15669;SDS011;18524;45.190;5.732;2022-12-07T04:22:36;24.13;;;14.90;;
15669;SDS011;18524;45.190;5.732;2022-12-07T04:27:27;24.97;;;15.03;;
15669;SDS011;18524;45.190;5.732;2022-12-07T04:32:17;23.67;;;14.60;;
15669;SDS011;18524;45.190;5.732;2022-12-07T04:37:07;25.20;;;15.43;;
15669;SDS011;18524;45.190;5.732;2022-12-07T04:41:58;23.07;;;15.07;;
15669;SDS011;18524;45.190;5.732;2022-12-07T04:46:50;23.43;;;14.80;;
15669;SDS011;18524;45.190;5.732;2022-12-07T04:51:41;26.80;;;16.03;;
15669;SDS011;18524;45.190;5.732;2022-12-07T04:56:32;23.33;;;14.90;;
15669;SDS011;18524;45.190;5.732;2022-12-07T05:01:25;23.73;;;14.87;;
15669;SDS011;18524;45.190;5.732;2022-12-07T05:06:15;24.97;;;15.27;;
15669;SDS011;18524;45.190;5.732;2022-12-07T05:11:06;24.47;;;15.33;;
15669;SDS011;18524;45.190;5.732;2022-12-07T05:15:57;21.73;;;14.37;;
15669;SDS011;18524;45.190;5.732;2022-12-07T05:20:47;25.60;;;14.93;;
15669;SDS011;18524;45.190;5.732;2022-12-07T05:25:38;25.87;;;15.90;;
15669;SDS011;18524;45.190;5.732;2022-12-07T05:30:28;25.60;;;15.80;;
15669;SDS011;18524;45.190;5.732;2022-12-07T05:35:19;22.97;;;14.37;;
15669;SDS011;18524;45.190;5.732;2022-12-07T05:40:10;23.63;;;14.73;;
15669;SDS011;18524;45.190;5.732;2022-12-07T05:45:01;25.33;;;15.63;;
15669;SDS011;18524;45.190;5.732;2022-12-07T05:49:51;23.80;;;15.10;;
15669;SDS011;18524;45.190;5.732;2022-12-07T05:54:42;23.53;;;15.37;;
15669;SDS011;18524;45.190;5.732;2022-12-07T05:59:32;23.13;;;14.63;;
15669;SDS011;18524;45.190;5.732;2022-12-07T06:04:23;23.53;;;14.23;;
15669;SDS011;18524;45.190;5.732;2022-12-07T06:09:15;23.17;;;14.87;;
15669;SDS011;18524;45.190;5.732;2022-12-07T06:14:08;22.20;;;14.97;;
15669;SDS011;18524;45.190;5.732;2022-12-07T06:18:58;27.00;;;16.73;;
15669;SDS011;18524;45.190;5.732;2022-12-07T06:23:49;27.07;;;16.10;;
15669;SDS011;18524;45.190;5.732;2022-12-07T06:28:39;25.20;;;15.77;;
15669;SDS011;18524;45.190;5.732;2022-12-07T06:33:30;26.67;;;16.40;;
15669;SDS011;18524;45.190;5.732;2022-12-07T06:38:21;24.17;;;15.60;;
15669;SDS011;18524;45.190;5.732;2022-12-07T06:43:11;23.30;;;15.43;;
15669;SDS011;18524;45.190;5.732;2022-12-07T06:48:02;23.63;;;15.80;;
15669;SDS011;18524;45.190;5.732;2022-12-07T06:52:52;24.37;;;15.20;;
15669;SDS011;18524;45.190;5.732;2022-12-07T06:57:43;25.50;;;15.87;;
15669;SDS011;18524;45.190;5.732;2022-12-07T07:02:33;26.60;;;16.60;;
15669;SDS011;18524;45.190;5.732;2022-12-07T07:07:23;23.97;;;16.30;;
15669;SDS011;18524;45.190;5.732;2022-12-07T07:12:14;24.53;;;15.97;;
15669;SDS011;18524;45.190;5.732;2022-12-07T07:17:04;23.80;;;16.03;;
15669;SDS011;18524;45.190;5.732;2022-12-07T07:21:54;28.43;;;16.73;;
15669;SDS011;18524;45.190;5.732;2022-12-07T07:26:45;25.60;;;16.97;;
15669;SDS011;18524;45.190;5.732;2022-12-07T07:31:35;24.90;;;16.67;;
15669;SDS011;18524;45.190;5.732;2022-12-07T07:36:27;25.00;;;16.07;;
15669;SDS011;18524;45.190;5.732;2022-12-07T07:41:17;25.80;;;16.07;;
15669;SDS011;18524;45.190;5.732;2022-12-07T07:46:07;23.03;;;15.70;;
15669;SDS011;18524;45.190;5.732;2022-12-07T07:50:58;22.67;;;15.03;;
15669;SDS011;18524;45.190;5.732;2022-12-07T07:55:52;27.57;;;16.03;;
15669;SDS011;18524;45.190;5.732;2022-12-07T08:00:43;24.47;;;15.57;;
15669;SDS011;18524;45.190;5.732;2022-12-07T08:05:33;22.40;;;14.60;;
15669;SDS011;18524;45.190;5.732;2022-12-07T08:10:24;22.40;;;13.37;;
15669;SDS011;18524;45.190;5.732;2022-12-07T08:15:14;24.80;;;14.13;;
15669;SDS011;18524;45.190;5.732;2022-12-07T08:20:05;26.57;;;15.63;;
15669;SDS011;18524;45.190;5.732;2022-12-07T08:24:56;25.10;;;15.40;;
15669;SDS011;18524;45.190;5.732;2022-12-07T08:29:46;23.47;;;14.90;;
15669;SDS011;18524;45.190;5.732;2022-12-07T08:34:36;25.53;;;15.87;;
15669;SDS011;18524;45.190;5.732;2022-12-07T08:39:27;28.93;;;17.20;;
15669;SDS011;18524;45.190;5.732;2022-12-07T08:44:17;25.27;;;15.83;;
15669;SDS011;18524;45.190;5.732;2022-12-07T08:49:09;28.07;;;16.70;;
15669;SDS011;18524;45.190;5.732;2022-12-07T08:54:04;27.43;;;16.37;;
15669;SDS011;18524;45.190;5.732;2022-12-07T08:58:57;24.33;;;15.33;;
15669;SDS011;18524;45.190;5.732;2022-12-07T09:03:48;25.50;;;15.87;;
15669;SDS011;18524;45.190;5.732;2022-12-07T09:08:40;26.03;;;16.97;;
15669;SDS011;18524;45.190;5.732;2022-12-07T09:13:33;26.27;;;16.17;;
15669;SDS011;18524;45.190;5.732;2022-12-07T09:18:23;22.90;;;15.07;;
15669;SDS011;18524;45.190;5.732;2022-12-07T09:23:14;24.50;;;15.97;;
15669;SDS011;18524;45.190;5.732;2022-12-07T09:28:05;22.93;;;15.50;;
15669;SDS011;18524;45.190;5.732;2022-12-07T09:32:56;22.93;;;15.40;;
15669;SDS011;18524;45.190;5.732;2022-12-07T09:37:47;23.93;;;15.50;;
15669;SDS011;18524;45.190;5.732;2022-12-07T09:42:38;22.23;;;14.47;;
15669;SDS011;18524;45.190;5.732;2022-12-07T09:47:31;22.27;;;14.80;;
15669;SDS011;18524;45.190;5.732;2022-12-07T09:52:27;24.47;;;15.60;;
15669;SDS011;18524;45.190;5.732;2022-12-07T09:57:20;25.90;;;17.03;;
15669;SDS011;18524;45.190;5.732;2022-12-07T10:07:29;32.77;;;20.37;;
15669;SDS011;18524;45.190;5.732;2022-12-07T10:12:19;28.00;;;17.70;;
15669;SDS011;18524;45.190;5.732;2022-12-07T10:17:26;28.47;;;18.07;;
15669;SDS011;18524;45.190;5.732;2022-12-07T10:22:20;29.03;;;17.90;;
15669;SDS011;18524;45.190;5.732;2022-12-07T10:27:18;27.43;;;18.30;;
15669;SDS011;18524;45.190;5.732;2022-12-07T10:42:08;27.60;;;18.17;;
15669;SDS011;18524;45.190;5.732;2022-12-07T11:17:20;26.90;;;18.00;;
15669;SDS011;18524;45.190;5.732;2022-12-07T11:22:16;25.03;;;16.63;;
15669;SDS011;18524;45.190;5.732;2022-12-07T11:37:23;24.33;;;16.33;;
15669;SDS011;18524;45.190;5.732;2022-12-07T11:57:28;23.97;;;16.23;;
15669;SDS011;18524;45.190;5.732;2022-12-07T12:02:32;25.37;;;16.97;;
15669;SDS011;18524;45.190;5.732;2022-12-07T12:07:29;24.60;;;17.57;;
15669;SDS011;18524;45.190;5.732;2022-12-07T12:13:04;26.37;;;17.20;;
15669;SDS011;18524;45.190;5.732;2022-12-07T12:22:48;24.83;;;17.53;;
15669;SDS011;18524;45.190;5.732;2022-12-07T12:27:44;25.73;;;17.13;;
15669;SDS011;18524;45.190;5.732;2022-12-07T12:32:42;26.67;;;17.53;;
15669;SDS011;18524;45.190;5.732;2022-12-07T12:42:42;26.20;;;17.53;;
15669;SDS011;18524;45.190;5.732;2022-12-07T12:57:29;27.60;;;17.90;;
15669;SDS011;18524;45.190;5.732;2022-12-07T13:02:28;26.53;;;17.97;;
15669;SDS011;18524;45.190;5.732;2022-12-07T13:12:42;27.17;;;17.30;;
15669;SDS011;18524;45.190;5.732;2022-12-07T13:27:28;25.63;;;17.57;;
15669;SDS011;18524;45.190;5.732;2022-12-07T13:32:23;24.73;;;16.57;;
15669;SDS011;18524;45.190;5.732;2022-12-07T13:37:21;25.27;;;16.83;;
15669;SDS011;18524;45.190;5.732;2022-12-07T13:42:30;28.00;;;18.67;;
15669;SDS011;18524;45.190;5.732;2022-12-07T13:47:26;32.27;;;20.07;;
15669;SDS011;18524;45.190;5.732;2022-12-07T13:57:16;27.37;;;17.27;;
15669;SDS011;18524;45.190;5.732;2022-12-07T14:02:21;27.43;;;17.93;;
15669;SDS011;18524;45.190;5.732;2022-12-07T14:07:29;32.13;;;20.17;;
15669;SDS011;18524;45.190;5.732;2022-12-07T14:12:19;36.23;;;21.40;;
15669;SDS011;18524;45.190;5.732;2022-12-07T14:17:17;23.50;;;15.77;;
15669;SDS011;18524;45.190;5.732;2022-12-07T14:22:18;34.00;;;19.67;;
15669;SDS011;18524;45.190;5.732;2022-12-07T14:32:21;24.13;;;15.97;;
15669;SDS011;18524;45.190;5.732;2022-12-07T14:37:18;23.83;;;16.23;;
15669;SDS011;18524;45.190;5.732;2022-12-07T14:42:08;23.47;;;15.77;;
15669;SDS011;18524;45.190;5.732;2022-12-07T14:46:59;24.43;;;15.73;;
15669;SDS011;18524;45.190;5.732;2022-12-07T14:51:49;24.73;;;16.07;;
15669;SDS011;18524;45.190;5.732;2022-12-07T14:56:39;23.60;;;15.40;;
15669;SDS011;18524;45.190;5.732;2022-12-07T15:01:30;21.60;;;15.03;;
15669;SDS011;18524;45.190;5.732;2022-12-07T15:06:20;22.80;;;15.00;;
15669;SDS011;18524;45.190;5.732;2022-12-07T15:11:17;26.50;;;16.97;;
15669;SDS011;18524;45.190;5.732;2022-12-07T15:16:09;22.60;;;15.23;;
15669;SDS011;18524;45.190;5.732;2022-12-07T15:21:02;22.73;;;15.17;;
15669;SDS011;18524;45.190;5.732;2022-12-07T15:25:53;24.90;;;16.47;;
15669;SDS011;18524;45.190;5.732;2022-12-07T15:30:44;23.97;;;16.50;;
15669;SDS011;18524;45.190;5.732;2022-12-07T15:35:38;23.27;;;14.97;;
15669;SDS011;18524;45.190;5.732;2022-12-07T15:40:33;22.53;;;15.43;;
15669;SDS011;18524;45.190;5.732;2022-12-07T15:45:24;25.10;;;15.90;;
15669;SDS011;18524;45.190;5.732;2022-12-07T15:50:15;23.97;;;16.17;;
15669;SDS011;18524;45.190;5.732;2022-12-07T15:55:06;26.10;;;16.27;;
15669;SDS011;18524;45.190;5.732;2022-12-07T15:59:58;24.33;;;16.30;;
15669;SDS011;18524;45.190;5.732;2022-12-07T16:04:49;22.90;;;15.63;;
15669;SDS011;18524;45.190;5.732;2022-12-07T16:09:40;23.97;;;15.67;;
15669;SDS011;18524;45.190;5.732;2022-12-07T16:14:30;22.40;;;15.07;;
15669;SDS011;18524;45.190;5.732;2022-12-07T16:19:23;21.47;;;14.70;;
15669;SDS011;18524;45.190;5.732;2022-12-07T16:24:13;25.67;;;16.97;;
15669;SDS011;18524;45.190;5.732;2022-12-07T16:29:05;24.37;;;16.47;;
15669;SDS011;18524;45.190;5.732;2022-12-07T16:33:56;26.00;;;16.37;;
15669;SDS011;18524;45.190;5.732;2022-12-07T16:38:48;26.77;;;16.60;;
15669;SDS011;18524;45.190;5.732;2022-12-07T16:43:38;23.53;;;16.03;;
15669;SDS011;18524;45.190;5.732;2022-12-07T16:48:28;24.40;;;16.50;;
15669;SDS011;18524;45.190;5.732;2022-12-07T16:53:19;25.87;;;16.33;;
15669;SDS011;18524;45.190;5.732;2022-12-07T16:58:11;26.00;;;16.50;;
15669;SDS011;18524;45.190;5.732;2022-12-07T17:03:03;25.67;;;17.00;;
15669;SDS011;18524;45.190;5.732;2022-12-07T17:07:54;26.17;;;17.10;;
15669;SDS011;18524;45.190;5.732;2022-12-07T17:12:45;27.53;;;18.17;;
15669;SDS011;18524;45.190;5.732;2022-12-07T17:17:36;28.13;;;17.60;;
15669;SDS011;18524;45.190;5.732;2022-12-07T17:22:26;25.67;;;17.07;;
15669;SDS011;18524;45.190;5.732;2022-12-07T17:27:16;28.67;;;18.00;;
15669;SDS011;18524;45.190;5.732;2022-12-07T17:32:07;25.67;;;17.30;;
15669;SDS011;18524;45.190;5.732;2022-12-07T17:36:57;26.07;;;17.00;;
15669;SDS011;18524;45.190;5.732;2022-12-07T17:41:48;28.17;;;17.17;;
15669;SDS011;18524;45.190;5.732;2022-12-07T17:46:57;25.20;;;16.27;;
15669;SDS011;18524;45.190;5.732;2022-12-07T17:51:48;27.37;;;17.13;;
15669;SDS011;18524;45.190;5.732;2022-12-07T17:56:57;24.13;;;15.70;;
15669;SDS011;18524;45.190;5.732;2022-12-07T18:01:48;25.27;;;16.77;;
15669;SDS011;18524;45.190;5.732;2022-12-07T18:06:38;25.57;;;15.83;;
15669;SDS011;18524;45.190;5.732;2022-12-07T18:11:29;23.67;;;16.17;;
15669;SDS011;18524;45.190;5.732;2022-12-07T18:16:21;26.63;;;17.73;;
15669;SDS011;18524;45.190;5.732;2022-12-07T18:21:14;24.90;;;16.70;;
15669;SDS011;18524;45.190;5.732;2022-12-07T18:26:06;23.30;;;15.77;;
15669;SDS011;18524;45.190;5.732;2022-12-07T18:30:57;25.07;;;17.00;;
15669;SDS011;18524;45.190;5.732;2022-12-07T18:35:48;24.80;;;16.97;;
15669;SDS011;18524;45.190;5.732;2022-12-07T18:40:39;28.10;;;17.70;;
15669;SDS011;18524;45.190;5.732;2022-12-07T18:45:34;24.80;;;16.87;;
15669;SDS011;18524;45.190;5.732;2022-12-07T18:50:28;26.20;;;18.23;;
15669;SDS011;18524;45.190;5.732;2022-12-07T18:55:19;27.80;;;17.67;;
15669;SDS011;18524;45.190;5.732;2022-12-07T19:00:10;37.00;;;22.20;;
15669;SDS011;18524;45.190;5.732;2022-12-07T19:05:01;30.97;;;21.07;;
15669;SDS011;18524;45.190;5.732;2022-12-07T19:09:51;26.10;;;17.80;;
15669;SDS011;18524;45.190;5.732;2022-12-07T19:14:41;29.13;;;19.00;;
15669;SDS011;18524;45.190;5.732;2022-12-07T19:19:33;31.60;;;19.93;;
15669;SDS011;18524;45.190;5.732;2022-12-07T19:24:26;28.90;;;19.10;;
15669;SDS011;18524;45.190;5.732;2022-12-07T19:29:17;30.47;;;19.53;;
15669;SDS011;18524;45.190;5.732;2022-12-07T19:34:09;29.33;;;19.03;;
15669;SDS011;18524;45.190;5.732;2022-12-07T19:39:00;27.50;;;18.00;;
15669;SDS011;18524;45.190;5.732;2022-12-07T19:43:51;30.73;;;19.67;;
15669;SDS011;18524;45.190;5.732;2022-12-07T19:48:41;32.50;;;20.43;;
15669;SDS011;18524;45.190;5.732;2022-12-07T19:53:32;31.30;;;20.00;;
15669;SDS011;18524;45.190;5.732;2022-12-07T19:58:22;29.07;;;19.20;;
15669;SDS011;18524;45.190;5.732;2022-12-07T20:03:13;31.10;;;18.97;;
15669;SDS011;18524;45.190;5.732;2022-12-07T20:08:03;26.93;;;17.63;;
15669;SDS011;18524;45.190;5.732;2022-12-07T20:12:53;30.70;;;19.63;;
15669;SDS011;18524;45.190;5.732;2022-12-07T20:18:02;58.60;;;36.83;;
15669;SDS011;18524;45.190;5.732;2022-12-07T20:22:52;34.40;;;22.67;;
15669;SDS011;18524;45.190;5.732;2022-12-07T20:27:43;32.77;;;19.90;;
15669;SDS011;18524;45.190;5.732;2022-12-07T20:32:33;33.37;;;21.33;;
15669;SDS011;18524;45.190;5.732;2022-12-07T20:37:23;31.03;;;20.70;;
15669;SDS011;18524;45.190;5.732;2022-12-07T20:42:14;37.43;;;24.73;;
15669;SDS011;18524;45.190;5.732;2022-12-07T20:47:23;36.53;;;22.90;;
15669;SDS011;18524;45.190;5.732;2022-12-07T20:52:13;36.33;;;21.57;;
15669;SDS011;18524;45.190;5.732;2022-12-07T20:57:04;28.33;;;19.03;;
15669;SDS011;18524;45.190;5.732;2022-12-07T21:01:54;29.67;;;19.30;;
15669;SDS011;18524;45.190;5.732;2022-12-07T21:06:45;26.73;;;17.73;;
15669;SDS011;18524;45.190;5.732;2022-12-07T21:11:35;27.03;;;17.80;;
15669;SDS011;18524;45.190;5.732;2022-12-07T21:16:27;31.13;;;19.97;;
15669;SDS011;18524;45.190;5.732;2022-12-07T21:21:19;31.77;;;20.20;;
15669;SDS011;18524;45.190;5.732;2022-12-07T21:26:11;48.73;;;24.70;;
15669;SDS011;18524;45.190;5.732;2022-12-07T21:31:02;36.70;;;22.73;;
15669;SDS011;18524;45.190;5.732;2022-12-07T21:35:53;25.70;;;17.43;;
15669;SDS011;18524;45.190;5.732;2022-12-07T21:40:43;31.37;;;19.27;;
15669;SDS011;18524;45.190;5.732;2022-12-07T21:45:34;29.97;;;18.97;;
15669;SDS011;18524;45.190;5.732;2022-12-07T21:50:24;28.57;;;18.70;;
15669;SDS011;18524;45.190;5.732;2022-12-07T21:55:15;28.80;;;18.87;;
15669;SDS011;18524;45.190;5.732;2022-12-07T22:00:05;28.27;;;18.90;;
15669;SDS011;18524;45.190;5.732;2022-12-07T22:04:56;29.80;;;19.00;;
15669;SDS011;18524;45.190;5.732;2022-12-07T22:09:47;23.43;;;15.73;;
15669;SDS011;18524;45.190;5.732;2022-12-07T22:14:37;24.07;;;16.87;;
15669;SDS011;18524;45.190;5.732;2022-12-07T22:19:46;23.07;;;15.37;;
15669;SDS011;18524;45.190;5.732;2022-12-07T22:24:36;24.00;;;16.00;;
15669;SDS011;18524;45.190;5.732;2022-12-07T22:29:27;26.87;;;17.87;;
15669;SDS011;18524;45.190;5.732;2022-12-07T22:34:17;24.37;;;15.97;;
15669;SDS011;18524;45.190;5.732;2022-12-07T22:39:08;22.70;;;14.70;;
15669;SDS011;18524;45.190;5.732;2022-12-07T22:43:59;24.53;;;15.40;;
15669;SDS011;18524;45.190;5.732;2022-12-07T22:48:51;20.33;;;13.87;;
15669;SDS011;18524;45.190;5.732;2022-12-07T22:53:42;18.37;;;12.57;;
15669;SDS011;18524;45.190;5.732;2022-12-07T22:58:32;18.20;;;12.87;;
15669;SDS011;18524;45.190;5.732;2022-12-07T23:03:23;19.37;;;13.63;;
15669;SDS011;18524;45.190;5.732;2022-12-07T23:08:13;26.30;;;14.53;;
15669;SDS011;18524;45.190;5.732;2022-12-07T23:13:05;27.20;;;15.87;;
15669;SDS011;18524;45.190;5.732;2022-12-07T23:18:14;20.47;;;12.87;;
15669;SDS011;18524;45.190;5.732;2022-12-07T23:23:04;21.17;;;13.90;;
15669;SDS011;18524;45.190;5.732;2022-12-07T23:27:55;20.63;;;13.13;;
15669;SDS011;18524;45.190;5.732;2022-12-07T23:32:45;18.37;;;12.67;;
15669;SDS011;18524;45.190;5.732;2022-12-07T23:37:36;20.13;;;13.83;;
15669;SDS011;18524;45.190;5.732;2022-12-07T23:42:27;21.67;;;13.23;;
15669;SDS011;18524;45.190;5.732;2022-12-07T23:47:17;17.63;;;12.40;;
15669;SDS011;18524;45.190;5.732;2022-12-07T23:52:07;18.00;;;12.63;;
15669;SDS011;18524;45.190;5.732;2022-12-07T23:56:58;17.83;;;12.73;;
